createdAt,value
2023-04-14T00:00:14.392Z,8.50
2023-04-14T00:02:42.565Z,8.50
2023-04-14T00:05:10.475Z,8.50
2023-04-14T00:07:37.809Z,8.60
2023-04-14T00:10:05.758Z,8.70
2023-04-14T00:12:32.989Z,8.70
2023-04-14T00:15:00.372Z,8.70
2023-04-14T00:17:27.731Z,8.70
2023-04-14T00:19:55.062Z,8.70
2023-04-14T00:22:22.302Z,8.70
2023-04-14T00:24:50.919Z,8.70
2023-04-14T00:27:18.159Z,8.60
2023-04-14T00:29:45.429Z,8.50
2023-04-14T00:32:12.535Z,8.50
2023-04-14T00:34:39.798Z,8.50
2023-04-14T00:37:06.945Z,8.50
2023-04-14T00:39:34.208Z,8.50
2023-04-14T00:42:02.546Z,8.50
2023-04-14T00:44:30.545Z,8.40
2023-04-14T00:46:59.100Z,8.40
2023-04-14T00:49:26.816Z,8.30
2023-04-14T00:51:54.823Z,8.30
2023-04-14T00:54:22.698Z,8.30
2023-04-14T00:56:52.038Z,8.20
2023-04-14T00:59:19.517Z,8.30
2023-04-14T01:01:48.286Z,8.20
2023-04-14T01:04:21.048Z,8.20
2023-04-14T01:06:48.947Z,8.20
2023-04-14T01:09:16.547Z,8.30
2023-04-14T01:12:00.618Z,8.30
2023-04-14T01:14:35.358Z,8.30
2023-04-14T01:17:08.588Z,8.30
2023-04-14T01:19:43.326Z,8.40
2023-04-14T01:22:14.982Z,8.40
2023-04-14T01:25:05.523Z,8.40
2023-04-14T01:27:38.987Z,8.50
2023-04-14T01:30:09.267Z,8.40
2023-04-14T01:32:42.874Z,8.40
2023-04-14T01:35:17.504Z,8.40
2023-04-14T01:37:49.543Z,8.40
2023-04-14T01:40:19.639Z,8.40
2023-04-14T01:42:56.557Z,8.40
2023-04-14T01:45:27.207Z,8.40
2023-04-14T01:47:56.071Z,8.40
2023-04-14T01:50:26.788Z,8.40
2023-04-14T01:52:54.974Z,8.50
2023-04-14T01:55:26.891Z,8.50
2023-04-14T01:57:58.049Z,8.60
2023-04-14T02:00:26.917Z,8.60
2023-04-14T02:02:55.126Z,8.50
2023-04-14T02:05:24.359Z,8.50
2023-04-14T02:07:53.294Z,8.50
2023-04-14T02:10:23.541Z,8.50
2023-04-14T02:12:57.271Z,8.50
2023-04-14T02:15:26.052Z,8.50
2023-04-14T02:17:54.358Z,8.40
2023-04-14T02:20:23.026Z,8.40
2023-04-14T02:22:50.575Z,8.40
2023-04-14T02:25:17.896Z,8.50
2023-04-14T02:27:48.625Z,8.50
2023-04-14T02:30:22.726Z,8.50
2023-04-14T02:32:57.765Z,8.60
2023-04-14T02:35:28.854Z,8.60
2023-04-14T02:38:07.384Z,8.60
2023-04-14T02:40:41.369Z,8.60
2023-04-14T02:43:24.964Z,8.70
2023-04-14T02:45:54.954Z,8.70
2023-04-14T02:48:27.347Z,8.60
2023-04-14T02:50:57.870Z,8.70
2023-04-14T02:53:28.497Z,8.70
2023-04-14T02:56:06.580Z,8.70
2023-04-14T02:58:38.521Z,8.70
2023-04-14T03:01:06.928Z,8.80
2023-04-14T03:03:37.749Z,8.80
2023-04-14T03:06:09.692Z,8.80
2023-04-14T03:08:39.249Z,8.80
2023-04-14T03:11:07.185Z,8.70
2023-04-14T03:13:35.790Z,8.70
2023-04-14T03:16:04.989Z,8.70
2023-04-14T03:18:35.701Z,8.70
2023-04-14T03:21:03.588Z,8.80
2023-04-14T03:23:33.631Z,8.80
2023-04-14T03:26:06.858Z,8.80
2023-04-14T03:28:37.770Z,8.80
2023-04-14T03:31:09.470Z,8.70
2023-04-14T03:33:48.268Z,8.70
2023-04-14T03:36:18.242Z,8.70
2023-04-14T03:38:49.880Z,8.70
2023-04-14T03:41:21.272Z,8.70
2023-04-14T03:43:54.768Z,8.70
2023-04-14T03:46:24.146Z,8.70
2023-04-14T03:48:54.068Z,8.70
2023-04-14T03:51:24.176Z,8.70
2023-04-14T03:53:53.126Z,8.70
2023-04-14T03:56:21.658Z,8.70
2023-04-14T03:58:52.394Z,8.70
2023-04-14T04:01:21.449Z,8.70
2023-04-14T04:03:50.007Z,8.70
2023-04-14T04:06:18.175Z,8.70
2023-04-14T04:08:49.862Z,8.70
2023-04-14T04:11:20.440Z,8.70
2023-04-14T04:13:50.268Z,8.70
2023-04-14T04:16:20.513Z,8.70
2023-04-14T04:18:49.956Z,8.70
2023-04-14T04:21:23.467Z,8.70
2023-04-14T04:23:54.536Z,8.70
2023-04-14T04:26:25.315Z,8.70
2023-04-14T04:28:54.860Z,8.70
2023-04-14T04:31:23.842Z,8.70
2023-04-14T04:33:52.118Z,8.70
2023-04-14T04:36:20.988Z,8.70
2023-04-14T04:38:50.151Z,8.70
2023-04-14T04:41:20.939Z,8.60
2023-04-14T04:43:48.108Z,8.60
2023-04-14T04:46:36.770Z,8.60
2023-04-14T04:49:04.064Z,8.60
2023-04-14T04:51:31.393Z,8.60
2023-04-14T04:53:58.739Z,8.60
2023-04-14T04:56:26.570Z,8.70
2023-04-14T04:58:53.944Z,8.70
2023-04-14T05:01:21.690Z,8.70
2023-04-14T05:03:48.978Z,8.70
2023-04-14T05:06:16.688Z,8.70
2023-04-14T05:08:44.122Z,8.70
2023-04-14T05:11:11.530Z,8.70
2023-04-14T05:13:38.821Z,8.60
2023-04-14T05:16:07.642Z,8.70
2023-04-14T05:18:36.321Z,8.70
2023-04-14T05:21:06.243Z,8.70
2023-04-14T05:23:34.462Z,8.60
2023-04-14T05:26:20.377Z,8.70
2023-04-14T05:28:49.783Z,8.70
2023-04-14T05:31:17.065Z,8.70
2023-04-14T05:33:44.310Z,8.70
2023-04-14T05:36:12.067Z,8.80
2023-04-14T05:38:40.230Z,8.80
2023-04-14T05:41:07.825Z,8.80
2023-04-14T05:43:35.437Z,8.80
2023-04-14T05:46:02.748Z,8.80
2023-04-14T05:48:31.066Z,8.80
2023-04-14T05:50:58.452Z,8.90
2023-04-14T05:53:25.847Z,8.80
2023-04-14T05:55:53.496Z,8.80
2023-04-14T05:58:20.816Z,8.80
2023-04-14T06:00:47.968Z,8.80
2023-04-14T06:03:16.856Z,8.80
2023-04-14T06:05:44.326Z,8.90
2023-04-14T06:08:11.538Z,8.90
2023-04-14T06:10:38.731Z,8.90
2023-04-14T06:13:05.968Z,8.90
2023-04-14T06:15:33.087Z,8.90
2023-04-14T06:18:00.407Z,9.00
2023-04-14T06:20:27.756Z,9.00
2023-04-14T06:22:55.407Z,9.00
2023-04-14T06:25:22.680Z,9.00
2023-04-14T06:27:49.976Z,9.00
2023-04-14T06:30:17.269Z,9.00
2023-04-14T06:32:44.523Z,9.00
2023-04-14T06:35:19.118Z,9.00
2023-04-14T06:37:53.110Z,9.10
2023-04-14T06:40:20.381Z,9.10
2023-04-14T06:42:47.665Z,9.10
2023-04-14T06:45:14.906Z,9.10
2023-04-14T06:47:42.462Z,9.20
2023-04-14T06:50:09.947Z,9.20
2023-04-14T06:52:37.112Z,9.20
2023-04-14T06:55:04.613Z,9.20
2023-04-14T06:57:32.074Z,9.20
2023-04-14T06:59:59.217Z,9.30
2023-04-14T07:02:26.700Z,9.30
2023-04-14T07:04:53.918Z,9.40
2023-04-14T07:07:21.101Z,9.40
2023-04-14T07:09:48.594Z,9.40
2023-04-14T07:12:17.016Z,9.40
2023-04-14T07:14:51.154Z,9.40
2023-04-14T07:17:19.349Z,9.50
2023-04-14T07:19:46.876Z,9.50
2023-04-14T07:22:14.097Z,9.60
2023-04-14T07:24:41.787Z,9.60
2023-04-14T07:27:15.798Z,9.60
2023-04-14T07:29:43.350Z,9.70
2023-04-14T07:32:12.095Z,9.70
2023-04-14T07:34:43.716Z,9.80
2023-04-14T07:37:11.234Z,9.90
2023-04-14T07:39:38.736Z,9.90
2023-04-14T07:42:06.989Z,10.00
2023-04-14T07:44:34.274Z,10.00
2023-04-14T07:47:01.545Z,10.10
2023-04-14T07:49:28.710Z,10.20
2023-04-14T07:51:56.922Z,10.30
2023-04-14T07:54:24.619Z,10.30
2023-04-14T07:56:52.042Z,10.50
2023-04-14T07:59:19.187Z,10.60
2023-04-14T08:01:46.685Z,10.60
2023-04-14T08:04:14.190Z,10.70
2023-04-14T08:06:41.775Z,10.70
2023-04-14T08:09:08.931Z,10.80
2023-04-14T08:11:36.253Z,10.80
2023-04-14T08:14:04.770Z,10.90
2023-04-14T08:16:36.855Z,10.90
2023-04-14T08:19:05.096Z,11.00
2023-04-14T08:21:33.327Z,11.00
2023-04-14T08:24:00.603Z,11.10
2023-04-14T08:26:27.934Z,11.20
2023-04-14T08:28:55.123Z,11.20
2023-04-14T08:31:24.605Z,11.30
2023-04-14T08:33:53.048Z,11.40
2023-04-14T08:36:20.607Z,11.40
2023-04-14T08:38:47.893Z,11.40
2023-04-14T08:41:18.465Z,11.40
2023-04-14T08:43:46.345Z,11.50
2023-04-14T08:46:15.470Z,11.60
2023-04-14T08:48:46.737Z,11.80
2023-04-14T08:51:22.381Z,12.10
2023-04-14T08:53:51.675Z,12.40
2023-04-14T08:56:20.053Z,12.80
2023-04-14T08:58:48.318Z,12.90
2023-04-14T09:01:15.794Z,13.10
2023-04-14T09:03:44.170Z,13.20
2023-04-14T09:06:12.313Z,13.20
2023-04-14T09:08:39.714Z,13.20
2023-04-14T09:11:06.985Z,13.20
2023-04-14T09:13:36.554Z,13.30
2023-04-14T09:16:03.983Z,13.30
2023-04-14T09:18:34.513Z,13.30
2023-04-14T09:21:30.009Z,13.30
2023-04-14T09:23:50.161Z,13.40
2023-04-14T09:26:17.580Z,14.00
2023-04-14T09:28:44.872Z,14.70
2023-04-14T09:31:12.102Z,15.00
2023-04-14T09:33:43.411Z,15.20
2023-04-14T09:36:19.844Z,15.50
2023-04-14T09:38:47.273Z,15.60
2023-04-14T09:41:17.035Z,15.80
2023-04-14T09:43:45.827Z,15.90
2023-04-14T09:46:13.685Z,15.90
2023-04-14T09:48:44.028Z,16.00
2023-04-14T09:51:11.740Z,16.30
2023-04-14T09:53:41.238Z,16.60
2023-04-14T09:56:10.697Z,16.80
2023-04-14T09:58:40.599Z,17.20
2023-04-14T10:01:11.157Z,17.40
2023-04-14T10:03:41.974Z,17.20
2023-04-14T10:06:16.306Z,16.80
2023-04-14T10:08:46.689Z,16.90
2023-04-14T10:11:17.059Z,16.80
2023-04-14T10:13:45.899Z,16.40
2023-04-14T10:16:13.623Z,16.00
2023-04-14T10:18:41.220Z,15.80
2023-04-14T10:21:09.818Z,15.70
2023-04-14T10:23:39.494Z,15.70
2023-04-14T10:26:08.295Z,16.10
2023-04-14T10:28:37.852Z,16.00
2023-04-14T10:31:09.873Z,15.80
2023-04-14T10:33:38.491Z,15.60
2023-04-14T10:36:05.954Z,15.40
2023-04-14T10:38:39.789Z,15.20
2023-04-14T10:41:08.059Z,15.10
2023-04-14T10:43:37.490Z,14.90
2023-04-14T10:46:07.334Z,14.80
2023-04-14T10:48:37.887Z,14.60
2023-04-14T10:51:07.171Z,14.60
2023-04-14T10:53:38.244Z,14.70
2023-04-14T10:56:06.317Z,14.70
2023-04-14T10:58:36.554Z,14.60
2023-04-14T11:01:20.959Z,14.50
2023-04-14T11:03:48.349Z,14.50
2023-04-14T11:06:37.091Z,14.60
2023-04-14T11:09:23.660Z,14.50
2023-04-14T11:11:51.763Z,14.20
2023-04-14T11:14:26.683Z,14.00
2023-04-14T11:17:03.947Z,14.00
2023-04-14T11:19:33.387Z,14.20
2023-04-14T11:22:00.672Z,14.70
2023-04-14T11:24:29.089Z,14.80
2023-04-14T11:26:57.140Z,14.70
2023-04-14T11:29:24.510Z,14.30
2023-04-14T11:32:06.705Z,14.10
2023-04-14T11:34:35.099Z,13.90
2023-04-14T11:37:03.353Z,13.90
2023-04-14T11:39:30.823Z,13.90
2023-04-14T11:42:00.881Z,13.80
2023-04-14T11:44:28.100Z,13.70
2023-04-14T11:46:55.348Z,13.80
2023-04-14T11:49:35.174Z,13.90
2023-04-14T11:52:05.618Z,14.00
2023-04-14T11:54:35.985Z,14.10
2023-04-14T11:57:03.556Z,14.10
2023-04-14T11:59:30.845Z,14.10
2023-04-14T12:01:58.696Z,14.10
2023-04-14T12:04:26.738Z,14.10
2023-04-14T12:06:54.885Z,14.10
2023-04-14T12:09:22.314Z,14.00
2023-04-14T12:11:52.552Z,14.00
2023-04-14T12:14:19.994Z,13.90
2023-04-14T12:16:47.924Z,13.80
2023-04-14T12:19:15.082Z,13.70
2023-04-14T12:21:42.675Z,13.60
2023-04-14T12:24:10.005Z,13.50
2023-04-14T12:26:37.454Z,13.50
2023-04-14T12:29:04.947Z,13.40
2023-04-14T12:31:32.628Z,13.40
2023-04-14T12:34:02.161Z,13.50
2023-04-14T12:36:45.398Z,13.80
2023-04-14T12:39:16.847Z,14.00
2023-04-14T12:41:44.196Z,14.20
2023-04-14T12:44:15.121Z,14.00
2023-04-14T12:46:47.031Z,14.00
2023-04-14T12:49:28.994Z,13.80
2023-04-14T12:51:56.305Z,13.60
2023-04-14T12:54:23.835Z,13.50
2023-04-14T12:56:51.521Z,13.60
2023-04-14T12:59:18.838Z,13.70
2023-04-14T13:01:46.254Z,13.80
2023-04-14T13:04:13.471Z,13.90
2023-04-14T13:06:41.039Z,14.10
2023-04-14T13:09:08.201Z,14.40
2023-04-14T13:11:35.522Z,14.40
2023-04-14T13:14:02.931Z,14.30
2023-04-14T13:16:30.191Z,14.20
2023-04-14T13:18:59.063Z,13.90
2023-04-14T13:21:27.328Z,13.90
2023-04-14T13:23:54.423Z,13.90
2023-04-14T13:26:21.587Z,14.00
2023-04-14T13:28:50.557Z,14.20
2023-04-14T13:31:18.713Z,14.20
2023-04-14T13:33:45.894Z,14.10
2023-04-14T13:36:13.210Z,14.00
2023-04-14T13:38:41.807Z,13.80
2023-04-14T13:41:09.082Z,13.70
2023-04-14T13:43:36.429Z,13.70
2023-04-14T13:46:03.690Z,13.60
2023-04-14T13:48:31.782Z,13.50
2023-04-14T13:50:59.829Z,13.50
2023-04-14T13:53:27.232Z,13.30
2023-04-14T13:55:54.552Z,13.10
2023-04-14T13:58:22.884Z,13.00
2023-04-14T14:00:50.344Z,13.00
2023-04-14T14:03:17.627Z,12.90
2023-04-14T14:05:45.075Z,13.00
2023-04-14T14:08:15.894Z,12.90
2023-04-14T14:10:43.588Z,12.70
2023-04-14T14:13:10.873Z,12.50
2023-04-14T14:15:38.151Z,12.30
2023-04-14T14:18:05.596Z,12.10
2023-04-14T14:20:32.820Z,12.00
2023-04-14T14:22:59.942Z,12.00
2023-04-14T14:25:27.161Z,12.00
2023-04-14T14:27:54.368Z,12.10
2023-04-14T14:30:21.547Z,12.20
2023-04-14T14:32:48.645Z,12.40
2023-04-14T14:35:16.738Z,12.60
2023-04-14T14:37:45.626Z,12.80
2023-04-14T14:40:13.211Z,13.00
2023-04-14T14:42:40.518Z,13.30
2023-04-14T14:45:09.350Z,13.40
2023-04-14T14:47:37.568Z,13.60
2023-04-14T14:50:07.864Z,13.70
2023-04-14T14:52:36.662Z,13.70
2023-04-14T14:55:04.427Z,13.60
2023-04-14T14:57:31.939Z,13.60
2023-04-14T14:59:59.092Z,13.60
2023-04-14T15:02:26.711Z,13.50
2023-04-14T15:04:54.658Z,13.60
2023-04-14T15:07:21.842Z,13.60
2023-04-14T15:09:50.752Z,13.60
2023-04-14T15:12:18.337Z,13.50
2023-04-14T15:14:45.554Z,13.40
2023-04-14T15:17:12.832Z,13.40
2023-04-14T15:19:41.397Z,13.50
2023-04-14T15:22:09.330Z,13.60
2023-04-14T15:24:36.518Z,13.70
2023-04-14T15:27:04.071Z,13.70
2023-04-14T15:29:31.820Z,13.60
2023-04-14T15:31:59.063Z,13.60
2023-04-14T15:34:27.264Z,13.50
2023-04-14T15:36:54.639Z,13.40
2023-04-14T15:39:22.229Z,13.40
2023-04-14T15:41:50.754Z,13.40
2023-04-14T15:44:19.003Z,13.40
2023-04-14T15:46:46.374Z,13.40
2023-04-14T15:49:13.939Z,13.30
2023-04-14T15:51:41.051Z,13.20
2023-04-14T15:54:08.288Z,13.00
2023-04-14T15:56:35.746Z,12.90
2023-04-14T15:59:02.956Z,12.80
2023-04-14T16:01:30.482Z,12.90
2023-04-14T16:03:57.874Z,12.80
2023-04-14T16:06:25.018Z,12.80
2023-04-14T16:08:52.408Z,12.80
2023-04-14T16:11:19.934Z,12.80
2023-04-14T16:13:47.238Z,12.70
2023-04-14T16:16:16.207Z,12.60
2023-04-14T16:18:43.916Z,12.60
2023-04-14T16:21:11.388Z,12.50
2023-04-14T16:23:38.663Z,12.50
2023-04-14T16:26:05.773Z,12.50
2023-04-14T16:28:33.327Z,12.50
2023-04-14T16:31:01.619Z,12.40
2023-04-14T16:33:29.642Z,12.40
2023-04-14T16:35:57.121Z,12.50
2023-04-14T16:38:24.561Z,12.60
2023-04-14T16:40:55.403Z,12.70
2023-04-14T16:43:22.765Z,12.80
2023-04-14T16:45:50.015Z,12.90
2023-04-14T16:48:17.738Z,12.90
2023-04-14T16:50:47.408Z,13.00
2023-04-14T16:53:14.852Z,12.90
2023-04-14T16:55:42.182Z,12.90
2023-04-14T16:58:10.144Z,12.90
2023-04-14T17:00:37.401Z,12.90
2023-04-14T17:03:06.168Z,12.90
2023-04-14T17:05:33.768Z,12.90
2023-04-14T17:08:01.076Z,12.80
2023-04-14T17:10:29.875Z,12.80
2023-04-14T17:12:57.223Z,12.80
2023-04-14T17:15:24.341Z,12.70
2023-04-14T17:17:51.526Z,12.60
2023-04-14T17:20:19.230Z,12.50
2023-04-14T17:22:47.754Z,12.40
2023-04-14T17:25:17.164Z,12.20
2023-04-14T17:27:44.470Z,12.20
2023-04-14T17:30:12.090Z,12.00
2023-04-14T17:32:40.312Z,12.00
2023-04-14T17:35:09.128Z,12.00
2023-04-14T17:37:37.056Z,12.00
2023-04-14T17:40:05.062Z,12.00
2023-04-14T17:42:32.627Z,12.00
2023-04-14T17:44:59.929Z,12.00
2023-04-14T17:47:27.266Z,12.10
2023-04-14T17:49:54.634Z,12.10
2023-04-14T17:52:22.029Z,12.00
2023-04-14T17:54:50.192Z,12.10
2023-04-14T17:57:17.722Z,12.10
2023-04-14T17:59:45.569Z,12.20
2023-04-14T18:02:14.354Z,12.20
2023-04-14T18:04:41.860Z,12.20
2023-04-14T18:07:09.205Z,12.30
2023-04-14T18:09:36.388Z,12.30
2023-04-14T18:12:03.708Z,12.30
2023-04-14T18:14:32.155Z,12.30
2023-04-14T18:17:00.640Z,12.30
2023-04-14T18:19:28.503Z,12.30
2023-04-14T18:21:56.914Z,12.20
2023-04-14T18:26:54.833Z,12.30
2023-04-14T18:29:22.140Z,12.30
2023-04-14T18:31:50.053Z,12.30
2023-04-14T18:34:17.361Z,12.30
2023-04-14T18:36:44.621Z,12.30
2023-04-14T18:39:12.550Z,12.30
2023-04-14T18:41:40.422Z,12.30
2023-04-14T18:44:07.719Z,12.30
2023-04-14T18:46:35.982Z,12.30
2023-04-14T18:49:03.456Z,12.30
2023-04-14T18:51:31.808Z,12.30
2023-04-14T18:53:59.404Z,12.30
2023-04-14T18:56:28.166Z,12.30
2023-04-14T18:58:56.437Z,12.20
2023-04-14T19:01:23.749Z,12.30
2023-04-14T19:03:50.929Z,12.30
2023-04-14T19:06:18.394Z,12.20
2023-04-14T19:08:45.547Z,12.20
2023-04-14T19:11:12.758Z,12.20
2023-04-14T19:13:40.243Z,12.20
2023-04-14T19:16:08.940Z,12.20
2023-04-14T19:18:36.165Z,12.10
2023-04-14T19:21:03.561Z,12.10
2023-04-14T19:23:30.689Z,12.10
2023-04-14T19:25:57.997Z,12.10
2023-04-14T19:28:26.126Z,12.00
2023-04-14T19:30:53.640Z,12.00
2023-04-14T19:33:21.099Z,12.00
2023-04-14T19:35:49.180Z,12.00
2023-04-14T19:38:16.333Z,12.00
2023-04-14T19:40:48.218Z,12.00
2023-04-14T19:43:17.156Z,12.00
2023-04-14T19:45:47.493Z,12.00
2023-04-14T19:48:22.754Z,12.00
2023-04-14T19:50:54.964Z,12.00
2023-04-14T19:53:24.415Z,12.00
2023-04-14T19:55:53.749Z,12.00
2023-04-14T19:58:21.872Z,12.00
2023-04-14T20:00:52.445Z,11.90
2023-04-14T20:03:20.872Z,11.90
2023-04-14T20:05:50.648Z,11.90
2023-04-14T20:08:18.107Z,11.90
2023-04-14T20:10:45.337Z,11.80
2023-04-14T20:13:14.914Z,11.80
2023-04-14T20:15:43.211Z,11.80
2023-04-14T20:18:10.381Z,11.80
2023-04-14T20:20:40.643Z,11.70
2023-04-14T20:23:07.883Z,11.70
2023-04-14T20:25:37.310Z,11.70
2023-04-14T20:28:05.694Z,11.70
2023-04-14T20:30:33.157Z,11.70
2023-04-14T20:33:04.054Z,11.70
2023-04-14T20:35:32.975Z,11.60
2023-04-14T20:38:00.867Z,11.60
2023-04-14T20:40:28.150Z,11.50
2023-04-14T20:42:55.695Z,11.50
2023-04-14T20:45:22.993Z,11.50
2023-04-14T20:47:50.952Z,11.40
2023-04-14T20:50:19.204Z,11.40
2023-04-14T20:52:46.575Z,11.40
2023-04-14T20:55:13.903Z,11.30
2023-04-14T20:57:42.727Z,11.20
2023-04-14T21:00:12.075Z,11.20
2023-04-14T21:02:39.365Z,11.10
2023-04-14T21:05:07.157Z,11.10
2023-04-14T21:07:36.457Z,11.00
2023-04-14T21:10:06.887Z,11.00
2023-04-14T21:12:35.479Z,11.00
2023-04-14T21:15:46.974Z,11.00
2023-04-14T21:17:52.702Z,10.90
2023-04-14T21:20:20.103Z,11.00
2023-04-14T21:22:47.302Z,11.00
2023-04-14T21:25:15.845Z,10.90
2023-04-14T21:27:43.099Z,10.90
2023-04-14T21:30:10.849Z,10.90
2023-04-14T21:32:39.537Z,10.90
2023-04-14T21:35:08.654Z,10.90
2023-04-14T21:37:35.953Z,10.90
2023-04-14T21:40:06.681Z,10.80
2023-04-14T21:42:33.884Z,10.80
2023-04-14T21:45:01.083Z,10.80
2023-04-14T21:47:28.433Z,10.70
2023-04-14T21:49:56.631Z,10.70
2023-04-14T21:52:24.084Z,10.70
2023-04-14T21:54:51.684Z,10.70
2023-04-14T21:57:44.725Z,10.70
2023-04-14T22:00:13.212Z,10.70
2023-04-14T22:02:43.016Z,10.70
2023-04-14T22:05:10.825Z,10.70
2023-04-14T22:07:38.203Z,10.70
2023-04-14T22:10:07.039Z,10.70
2023-04-14T22:12:36.201Z,10.70
2023-04-14T22:15:04.533Z,10.80
2023-04-14T22:17:32.801Z,10.80
2023-04-14T22:20:00.849Z,10.80
2023-04-14T22:22:28.806Z,10.90
2023-04-14T22:24:56.496Z,10.90
2023-04-14T22:27:23.944Z,10.90
2023-04-14T22:29:51.849Z,10.90
2023-04-14T22:32:19.118Z,10.90
2023-04-14T22:34:46.239Z,10.90
2023-04-14T22:37:14.048Z,10.90
2023-04-14T22:39:41.899Z,10.90
2023-04-14T22:42:09.119Z,10.90
2023-04-14T22:44:36.665Z,10.90
2023-04-14T22:47:04.505Z,10.90
2023-04-14T22:49:32.092Z,11.00
2023-04-14T22:51:59.426Z,11.00
2023-04-14T22:54:27.591Z,11.00
2023-04-14T22:56:54.946Z,10.90
2023-04-14T22:59:22.372Z,10.90
2023-04-14T23:01:49.690Z,11.00
2023-04-14T23:04:16.957Z,10.90
2023-04-14T23:06:44.653Z,10.90
2023-04-14T23:09:11.794Z,10.90
2023-04-14T23:11:38.998Z,10.90
2023-04-14T23:14:06.268Z,10.90
2023-04-14T23:16:33.524Z,10.90
2023-04-14T23:19:01.466Z,10.90
2023-04-14T23:21:29.414Z,10.90
2023-04-14T23:23:56.620Z,10.80
2023-04-14T23:26:25.685Z,10.80
2023-04-14T23:28:53.146Z,10.80
2023-04-14T23:31:21.040Z,10.80
2023-04-14T23:33:51.121Z,10.80
2023-04-14T23:36:18.984Z,10.80
2023-04-14T23:38:46.375Z,10.80
2023-04-14T23:41:13.615Z,10.80
2023-04-14T23:43:40.799Z,10.80
2023-04-14T23:46:08.073Z,10.70
2023-04-14T23:48:35.268Z,10.70
2023-04-14T23:51:16.256Z,10.80
2023-04-14T23:53:44.982Z,10.70
2023-04-14T23:56:12.313Z,10.70
2023-04-14T23:58:39.675Z,10.70
